Doagh, United Kingdom
Current Conditions -  °F | °C
As of 4:50 PM on Friday 28 Nov 2014 (Local Time) from EGAA Reporting Station
Broken Clouds Broken Clouds  
Wind Chill: 10°   Ceiling: 2600
Heat Index: 10°   Visibility: 5mi
Dew Point:   Wind: 7mph
Humidity: 94%   Direction: 70°ENE
Pressure: 29.74"   Gusts: NA
Location:  54.75°N, 6.08°W
Report Text: EGAA 281650Z 07006KT 8000 FEW020 BKN026 10/09 Q1007
Loading
Personal Weather Stations






























Interactive Weather Map New forecast layout! Learn more

10-Day Weather Forecast

Advertisements
Track Severe Weather on mobile